Date,TemperatureHighF,TemperatureAvgF,TemperatureLowF,DewpointHighF,DewpointAvgF,DewpointLowF,HumidityHigh,HumidityAvg,HumidityLow,PressureMaxIn,PressureMinIn,WindSpeedMaxMPH,WindSpeedAvgMPH,GustSpeedMaxMPH,PrecipitationSumIn
2013-1-1,48.6,40.3,35.2,43.3,35.3,30.6,88,82,78,30.18,30.08,4,0,4,0.00
2013-1-2,47.5,38.4,31.8,42.7,33.4,26.5,88,82,80,30.15,30.02,2,0,2,0.00
2013-1-3,47.5,38.7,31.8,43.2,34.0,26.7,88,83,80,30.17,30.08,1,0,1,0.00
2013-1-4,50.2,40.3,33.4,45.0,35.3,28.7,88,82,80,30.18,30.09,4,0,4,0.00
2013-1-5,51.1,47.2,37.9,47.3,43.2,32.6,90,86,81,30.18,30.00,5,0,5,0.57
2013-1-6,48.7,46.0,40.3,45.3,41.9,35.2,89,86,82,30.10,29.98,4,0,4,0.08
2013-1-7,50.5,43.8,37.8,47.1,39.9,33.2,90,86,83,30.18,30.06,2,0,2,0.00
2013-1-8,54.7,46.2,41.7,51.5,42.4,37.5,92,87,85,30.13,30.03,4,0,4,0.00
2013-1-9,52.2,45.1,39.6,49.0,40.9,35.1,91,85,82,30.06,29.93,6,0,6,0.02
2013-1-10,45.7,40.8,37.9,39.7,35.1,33.1,87,80,71,30.11,30.01,9,1,9,0.04
2013-1-11,47.5,39.8,32.9,39.9,33.8,27.4,87,79,73,30.17,30.04,12,0,12,0.00
2013-1-12,47.1,39.5,34.2,38.9,33.5,28.6,85,79,71,30.18,30.04,6,0,6,0.00
2013-1-13,45.0,36.2,29.8,35.8,28.3,23.5,82,73,63,30.18,30.06,5,0,5,0.00
2013-1-14,48.0,38.9,32.4,30.1,25.8,21.2,72,60,48,30.31,30.13,4,0,4,0.00
2013-1-15,45.9,36.4,29.7,36.5,28.2,22.1,78,72,67,30.38,30.29,2,0,2,0.00
2013-1-16,50.0,38.4,30.6,41.5,31.3,24.2,82,75,69,30.34,30.15,2,0,2,0.00
2013-1-17,54.5,41.0,32.4,46.6,34.2,26.6,84,77,69,30.17,30.03,2,0,2,0.00
2013-1-18,55.9,42.0,33.6,46.4,34.6,27.8,84,75,62,30.13,30.03,2,0,2,0.00
2013-1-19,56.1,42.6,33.8,49.2,35.3,27.7,84,75,68,30.14,30.05,4,0,4,0.00
2013-1-20,56.5,42.6,33.3,47.4,35.3,26.8,83,75,68,30.14,30.01,3,0,3,0.00
2013-1-21,56.5,42.4,32.5,47.2,34.8,26.3,82,75,66,30.08,29.97,7,0,7,0.00
2013-1-22,56.3,44.3,33.6,46.2,36.5,27.4,82,74,66,30.05,29.93,2,0,2,0.00
2013-1-23,51.8,47.7,44.1,46.9,42.3,37.7,87,81,76,30.00,29.91,3,0,3,0.10
2013-1-24,53.1,50.8,48.6,49.9,47.4,44.9,90,88,86,30.10,29.97,1,0,1,0.32
2013-1-25,63.1,53.9,51.1,59.0,50.7,48.0,91,89,86,30.10,29.99,2,0,2,0.02
2013-1-26,56.3,48.2,42.8,46.6,40.3,36.9,80,74,67,30.02,29.93,7,1,7,0.00
2013-1-27,55.8,45.0,38.3,43.9,37.3,32.5,86,75,60,30.09,30.01,6,0,6,0.00
2013-1-28,55.0,45.8,38.5,44.5,38.6,32.4,84,76,65,30.21,30.08,6,1,6,0.00
2013-1-29,56.3,47.8,42.4,46.3,40.6,36.6,83,76,68,30.26,30.16,4,0,4,0.00
2013-1-30,59.2,46.3,38.3,50.2,39.9,33.0,86,78,68,30.27,30.15,4,0,4,0.00
2013-1-31,59.4,45.8,36.1,50.7,39.5,30.3,85,79,72,30.20,30.07,4,0,4,0.00
2013-2-1,61.3,47.3,37.8,53.5,40.8,32.0,86,78,69,30.16,30.03,4,0,4,0.00
2013-2-2,57.9,47.9,41.9,50.8,42.2,35.9,85,81,75,30.21,30.12,2,0,2,0.00
2013-2-3,57.7,47.8,41.0,48.8,41.7,35.9,87,79,71,30.17,30.04,3,0,3,0.00
2013-2-4,60.4,48.2,39.4,51.9,42.0,33.7,84,79,73,30.10,29.96,4,0,4,0.00
2013-2-5,55.4,49.1,45.5,45.8,42.5,39.2,83,78,69,30.07,30.00,7,1,7,0.00
2013-2-6,57.7,47.8,37.2,49.0,40.7,31.0,83,76,71,30.12,30.05,4,0,4,0.00
2013-2-7,54.7,47.9,36.3,46.6,41.1,29.0,86,77,73,30.09,29.94,6,0,6,0.06
2013-2-8,48.9,43.3,37.8,41.7,37.1,30.9,85,78,71,29.94,29.88,9,0,9,0.06
2013-2-9,54.9,41.4,32.9,44.9,34.0,26.2,82,75,66,30.02,29.92,4,0,4,0.00
2013-2-10,57.6,42.8,32.5,44.1,32.8,25.5,82,69,48,30.05,29.92,6,0,6,0.00
2013-2-11,59.9,44.3,33.4,41.3,31.8,26.4,82,63,37,30.17,30.00,7,0,7,0.00
2013-2-12,59.5,45.3,36.3,45.0,35.5,27.3,79,69,55,30.27,30.17,4,0,4,0.00
2013-2-13,61.2,45.9,35.1,49.1,37.2,28.0,82,72,63,30.26,30.12,4,0,4,0.00
2013-2-14,67.1,49.0,36.9,48.6,38.4,29.8,84,68,48,30.15,30.05,5,0,5,0.00
2013-2-15,67.6,50.3,38.5,52.5,39.8,31.6,83,68,49,30.17,30.10,8,0,8,0.00
2013-2-16,67.1,54.0,42.4,52.3,42.4,35.4,79,65,50,30.15,29.97,4,0,4,0.00
2013-2-17,62.1,48.7,39.2,49.3,39.8,31.4,83,71,61,30.00,29.89,4,0,4,0.00
2013-2-18,52.3,46.4,41.4,42.9,38.4,33.9,81,74,66,30.00,29.91,5,0,5,0.00
2013-2-19,47.1,43.7,37.8,42.5,37.6,31.5,84,79,74,29.92,29.71,8,0,8,0.43
2013-2-20,56.5,43.6,34.2,43.3,35.2,28.3,87,73,56,30.00,29.77,7,1,7,0.02
2013-2-21,59.4,46.0,36.7,41.5,34.7,30.5,85,66,45,30.11,29.99,8,1,8,0.00
2013-2-22,64.8,47.2,34.3,46.6,35.4,26.6,81,65,48,30.18,30.09,5,0,5,0.00
2013-2-23,60.4,48.4,41.0,44.4,38.5,30.9,79,69,50,30.18,30.07,6,1,6,0.00
2013-2-24,62.2,47.3,38.8,32.4,29.9,27.3,70,52,31,30.18,30.07,8,1,8,0.00
2013-2-25,64.9,48.2,34.9,46.9,35.7,25.4,76,63,50,30.21,30.07,6,0,6,0.00
2013-2-26,68.5,49.7,35.8,40.8,31.7,28.1,81,54,25,30.13,30.03,12,1,12,0.00
2013-2-27,68.0,49.5,35.6,45.8,34.8,25.7,73,58,40,30.27,30.13,4,0,4,0.00
2013-2-28,71.2,53.9,41.4,54.0,42.6,32.8,79,66,52,30.35,30.26,5,0,5,0.00
2013-3-1,73.6,55.9,43.3,57.7,45.4,36.1,84,69,51,30.34,30.12,5,0,5,0.00
2013-3-2,70.2,61.3,50.4,54.5,48.0,42.0,78,62,49,30.16,30.00,4,0,4,0.00
2013-3-3,64.0,55.0,48.7,51.0,46.0,41.2,78,72,61,30.04,29.96,6,0,6,0.00
2013-3-4,64.0,53.3,48.0,50.4,43.4,39.9,76,70,58,30.08,29.97,4,1,4,0.00
2013-3-5,55.0,50.7,46.9,43.7,41.3,39.6,77,71,63,30.02,29.85,7,1,7,0.55
2013-3-6,55.8,49.8,43.5,46.6,42.5,36.3,84,76,67,30.02,29.85,12,1,12,0.67
2013-3-7,56.5,48.4,41.5,44.8,39.9,35.2,81,73,59,29.94,29.79,6,1,6,0.30
2013-3-8,53.1,48.0,43.9,46.2,39.8,38.1,86,73,65,30.02,29.79,13,2,13,0.04
2013-3-9,65.5,53.4,45.5,46.7,40.5,-27.2,77,63,40,30.22,30.01,7,1,7,0.00
2013-3-10,68.0,51.1,38.3,50.2,40.1,30.1,82,67,50,30.27,30.15,5,0,5,0.00
2013-3-11,71.6,53.1,39.6,52.2,41.1,31.6,79,65,46,30.18,30.01,10,0,10,0.00
2013-3-12,73.8,55.8,41.9,54.0,44.0,34.0,79,66,49,30.08,29.96,5,0,5,0.00
2013-3-13,76.8,58.5,45.5,57.4,46.3,38.4,83,66,41,30.07,29.97,5,0,5,0.00
2013-3-14,72.9,58.6,47.3,58.2,46.2,39.6,81,65,45,30.08,30.00,9,0,9,0.00
2013-3-15,72.5,57.4,44.6,52.5,43.4,35.4,73,60,46,30.05,29.96,4,0,4,0.00
2013-3-16,72.9,57.6,47.5,55.9,42.3,36.8,78,59,33,30.02,29.94,9,1,9,0.00
2013-3-17,68.5,55.0,43.7,48.8,40.9,34.5,75,60,46,30.06,29.95,5,1,5,0.00
2013-3-18,64.9,52.9,41.0,52.4,41.9,32.0,74,66,61,30.05,29.95,4,0,4,0.00
2013-3-19,71.4,55.9,45.0,51.5,43.1,36.1,74,63,44,30.07,29.99,26,1,26,0.08
2013-3-20,63.1,56.8,52.2,53.2,49.0,45.0,82,75,69,30.05,30.00,6,0,6,0.00
2013-3-21,64.9,56.5,48.7,47.1,43.0,38.1,77,61,49,30.05,29.92,7,1,7,0.00
2013-3-22,65.7,53.7,39.0,38.3,33.6,29.0,78,50,26,30.01,29.92,7,1,7,0.00
2013-3-23,67.1,52.5,39.2,40.7,34.8,28.6,69,53,32,30.06,29.95,5,0,5,0.00
2013-3-24,68.5,53.6,41.0,50.1,40.2,30.9,72,61,49,30.03,29.89,5,0,5,0.00
2013-3-25,65.1,53.1,43.3,50.8,41.3,34.6,74,65,51,29.96,29.86,4,0,4,0.00
2013-3-26,67.3,55.3,46.9,51.7,44.1,38.0,74,66,56,29.94,29.84,5,0,5,0.00
2013-3-27,64.0,55.3,49.3,51.9,46.6,40.8,78,73,64,29.96,29.89,7,0,7,0.00
2013-3-28,64.8,57.9,54.9,55.9,51.3,48.3,84,79,70,30.01,29.94,4,0,4,0.12
2013-3-29,68.7,61.8,50.2,56.4,51.5,44.6,84,70,57,30.00,29.94,5,1,5,0.12
2013-3-30,63.9,56.9,53.1,52.5,49.4,46.2,82,76,65,30.03,29.94,5,0,5,0.38
2013-3-31,62.6,57.7,54.5,53.8,51.2,49.4,84,79,71,30.01,29.93,7,1,7,0.18
2013-4-1,62.2,56.8,51.6,53.4,50.3,45.0,85,79,68,30.08,29.97,6,0,6,0.41
2013-4-2,67.8,56.4,48.2,56.2,48.9,42.6,84,76,65,30.11,29.99,5,0,5,0.00
2013-4-3,70.2,57.1,47.8,55.8,48.0,41.6,83,72,53,30.06,29.92,4,0,4,0.00
2013-4-4,58.5,55.0,52.2,53.8,49.6,44.5,85,82,73,30.05,29.96,4,0,4,0.47
2013-4-5,63.1,57.3,53.1,54.1,50.7,46.0,86,79,68,30.11,30.03,7,0,7,0.00
2013-4-6,63.5,55.5,49.6,55.8,48.5,43.4,84,77,67,30.13,30.04,4,0,4,0.00
2013-4-7,64.9,55.5,48.6,55.9,47.6,42.7,83,75,63,30.11,29.83,4,1,4,0.06
2013-4-8,61.2,53.4,46.9,47.1,40.7,38.1,80,63,44,29.95,29.79,9,2,9,0.02
2013-4-9,67.6,54.9,42.3,41.9,38.7,34.7,80,57,34,30.00,29.93,8,1,8,0.00
2013-4-10,79.7,63.7,49.6,52.4,45.3,37.9,69,52,37,30.08,29.96,10,1,10,0.00
2013-4-11,67.8,59.9,51.3,50.1,45.3,40.1,71,59,48,30.00,29.79,7,1,7,0.00
2013-4-12,69.4,55.9,44.6,54.6,44.5,35.8,75,66,54,29.87,29.76,4,0,4,0.00
2013-4-13,66.7,53.7,46.8,53.2,42.2,38.2,76,66,49,29.86,29.79,12,1,12,0.00
2013-4-14,65.5,52.7,43.5,45.6,39.7,35.1,76,62,41,29.87,29.81,10,1,10,0.00
2013-4-15,54.7,49.6,45.5,44.3,38.7,34.1,77,66,54,29.90,29.81,12,2,12,0.00
2013-4-16,61.9,52.1,40.5,38.7,35.9,32.8,76,55,41,30.06,29.90,6,1,6,0.00
2013-4-17,64.0,54.8,41.4,37.6,34.1,30.8,71,47,31,30.17,30.05,9,2,9,0.00
2013-4-18,70.3,59.8,41.0,40.6,37.3,22.8,72,45,31,30.18,30.09,5,0,5,0.00
2013-4-19,74.3,58.8,44.4,52.2,42.5,33.3,71,56,42,30.17,30.00,4,0,4,0.00
2013-4-20,77.0,60.9,49.8,47.7,43.6,40.2,74,55,32,30.02,29.88,6,1,6,0.00
2013-4-21,81.0,69.3,50.0,50.7,46.0,24.7,71,45,30,29.95,29.84,4,0,4,0.00
2013-4-22,74.3,60.7,50.9,55.7,46.8,39.5,71,60,51,29.90,29.80,4,0,4,0.00
2013-4-23,68.7,56.9,48.6,54.6,46.6,39.9,76,69,58,29.90,29.81,4,0,4,0.00
2013-4-24,61.3,55.1,51.4,50.6,46.4,43.1,76,72,66,29.88,29.78,5,1,5,0.00
2013-4-29,84.4,72.1,62.4,56.4,50.4,46.0,55,47,38,29.73,29.69,4,0,4,0.00
2013-4-30,80.1,64.7,53.4,55.1,46.8,42.2,71,54,32,29.78,29.71,5,1,5,0.00
2013-5-1,75.9,64.1,52.2,57.7,50.2,30.8,72,61,43,30.02,29.74,4,1,4,0.00
2013-5-2,87.6,66.1,50.5,54.9,47.5,42.4,77,55,26,30.06,29.99,5,1,5,0.00
2013-5-3,87.8,62.5,51.8,51.0,44.5,39.3,65,53,25,30.03,29.74,7,1,7,0.00
2013-5-4,70.7,60.9,52.5,52.4,45.5,38.3,66,57,47,29.76,29.60,7,1,7,0.00
2013-5-5,64.9,60.1,56.1,51.6,48.4,45.5,69,65,60,29.75,29.59,10,2,10,0.00
2013-5-6,66.7,60.5,56.8,53.4,50.5,48.5,76,70,60,29.91,29.75,5,0,10,0.00
2013-5-7,73.4,62.2,56.3,53.8,50.0,44.6,77,65,47,29.99,29.90,7,1,7,0.00
2013-5-8,72.3,59.3,50.4,55.8,47.6,41.3,76,66,52,30.07,29.98,4,0,7,0.00
2013-5-9,73.8,60.8,53.8,57.4,49.8,44.8,76,68,55,30.10,29.99,4,0,5,0.00
2013-5-10,77.9,62.4,52.3,60.3,51.1,43.9,77,67,53,30.12,30.00,5,0,5,0.00
2013-5-11,85.6,66.2,52.3,62.0,52.6,44.3,78,63,43,30.08,29.95,4,0,5,0.00
2013-5-12,86.9,67.6,53.6,62.8,52.1,44.6,76,59,41,30.05,29.92,4,0,4,0.00
2013-5-13,84.4,65.8,54.0,60.8,49.6,42.1,67,57,44,30.02,29.88,6,0,6,0.00
2013-5-14,73.9,62.4,54.3,57.1,49.6,43.5,72,63,54,29.99,29.89,4,1,4,0.00
2013-5-15,70.7,58.5,50.0,49.0,45.2,40.4,74,62,45,30.01,29.97,6,1,6,0.00
2013-5-16,71.8,60.4,54.1,55.3,49.6,45.6,81,68,53,29.99,29.90,6,1,6,0.00
2013-5-17,72.3,58.9,49.6,47.9,44.6,41.3,77,60,40,30.03,29.93,7,1,7,0.00
2013-5-18,71.1,57.0,48.2,54.6,45.3,39.0,76,65,47,30.08,30.02,4,0,4,0.00
2013-5-19,82.4,64.5,50.4,50.9,45.4,39.1,74,53,31,30.05,29.89,18,1,18,0.00
2013-5-20,87.4,67.9,50.5,50.2,42.2,38.2,67,43,23,29.94,29.85,6,1,8,0.00
2013-5-21,73.9,65.3,51.8,49.4,42.7,25.1,62,46,30,29.95,29.86,8,1,8,0.00
2013-5-22,68.4,55.0,46.0,41.1,37.4,33.6,65,53,36,29.94,29.88,7,1,8,0.00
2013-5-23,70.2,55.9,49.5,47.2,41.2,34.8,68,59,43,29.96,29.88,48,1,7,0.00
2013-5-24,68.9,54.8,44.6,48.2,41.5,34.7,73,61,44,29.97,29.90,4,0,48,0.00
2013-5-25,70.0,56.5,48.2,48.7,43.2,37.4,73,62,44,30.01,29.94,6,1,6,0.00
2013-5-26,55.2,55.0,54.9,46.9,46.8,45.4,74,74,70,30.02,29.25,2,0,6,0.00
2013-5-27,55.0,55.0,55.0,46.9,46.9,46.9,74,74,74,29.25,29.25,0,0,0,0.00
2013-5-28,75.6,65.6,55.0,55.6,49.4,36.7,67,56,47,29.91,29.84,6,1,6,0.00
2013-5-29,75.9,62.6,54.9,57.6,50.4,33.2,77,65,46,29.91,29.84,7,1,7,0.00
2013-5-30,79.5,62.5,50.0,53.1,43.9,36.6,78,54,23,29.94,29.87,6,1,7,0.00
2013-5-31,88.5,63.0,55.0,74.1,44.2,42.1,63,53,24,29.94,29.53,4,0,6,0.00
2013-6-1,91.9,71.3,55.2,60.9,52.3,43.4,67,52,34,29.57,29.40,4,0,4,0.00
2013-6-2,76.3,67.7,58.6,57.8,52.9,48.0,70,59,50,29.44,29.37,6,1,6,0.00
2013-6-3,71.2,61.0,56.7,56.0,50.8,47.4,77,69,57,29.53,29.41,4,0,4,0.00
2013-6-4,72.7,59.9,51.6,58.3,50.4,44.1,81,71,59,29.62,29.51,5,0,5,0.00
2013-6-5,74.8,60.9,51.8,58.9,50.9,44.6,82,70,54,29.65,29.57,5,0,5,0.00
2013-6-6,77.9,63.3,56.3,60.1,52.6,48.6,78,69,52,29.61,29.51,5,0,5,0.00
2013-6-7,83.7,66.2,56.1,64.9,54.8,49.7,80,68,49,29.56,29.40,5,0,5,0.00
2013-6-8,77.5,64.1,56.3,60.9,53.8,48.5,79,70,55,29.51,29.41,7,1,7,0.00
2013-6-9,66.4,62.1,59.2,57.5,54.6,52.4,83,77,72,29.56,29.48,5,1,7,0.00
2013-6-10,71.2,63.2,58.8,56.6,52.9,50.2,75,69,59,29.61,29.51,7,1,7,0.00
2013-6-11,78.8,65.1,56.8,61.3,54.1,48.6,79,69,52,29.62,29.52,9,0,9,0.00
2013-6-12,83.3,64.2,52.7,62.2,49.4,43.0,77,60,36,29.66,29.56,11,1,11,0.00
2013-6-13,83.3,64.4,50.4,58.2,47.8,40.7,74,57,36,29.73,29.63,9,1,11,0.00
2013-6-14,87.8,67.7,51.4,55.1,47.3,41.6,72,51,28,29.63,29.45,24,1,24,0.00
2013-6-15,75.2,62.2,53.8,57.1,49.7,42.5,75,64,51,29.66,29.49,7,0,7,0.00
2013-6-16,83.7,67.6,56.3,59.4,51.2,46.8,75,58,33,29.72,29.65,6,1,7,0.00
2013-6-17,79.7,65.2,54.1,58.0,50.7,44.3,73,60,43,29.73,29.66,7,1,7,0.00
2013-6-18,73.2,62.7,56.8,52.3,49.5,47.2,74,63,44,29.68,29.64,16,1,16,0.00
2013-6-19,76.6,62.8,54.5,54.1,48.1,44.3,75,60,40,29.69,29.63,13,1,13,0.00
2013-6-20,81.5,63.6,51.1,57.4,46.8,41.6,74,56,29,29.66,29.56,7,1,13,0.00
2013-6-21,85.8,65.9,52.2,59.4,48.8,42.4,73,56,31,29.63,29.55,5,1,7,0.00
2013-6-22,87.6,67.1,52.7,60.6,49.7,42.4,72,56,31,29.58,29.49,6,1,6,0.00
2013-6-23,70.3,65.0,59.2,59.9,55.4,50.1,76,71,67,29.55,29.47,5,0,6,0.00
2013-6-24,65.8,63.4,62.1,59.1,57.4,56.1,84,81,76,29.58,29.45,4,0,4,0.00
2013-6-25,68.0,63.4,60.3,64.3,59.3,55.6,89,86,83,29.66,29.57,2,0,2,0.12
2013-6-26,89.2,72.4,63.0,71.8,63.7,59.5,90,76,53,29.67,29.58,5,1,5,0.00
2013-6-27,94.6,75.7,62.2,69.0,60.7,55.1,81,62,41,29.69,29.61,6,0,6,0.00
2013-6-28,97.9,78.0,62.4,66.4,57.7,52.1,72,52,30,29.66,29.53,4,1,6,0.00
2013-6-29,98.1,78.3,63.1,64.5,55.8,50.1,67,48,29,29.56,29.45,5,1,5,0.00
2013-6-30,94.3,75.9,61.9,66.5,56.1,50.7,71,52,28,29.51,29.40,6,1,6,0.00
2013-7-1,87.3,73.5,62.1,62.0,56.2,50.4,70,56,41,29.53,29.44,6,0,6,0.00
2013-7-2,88.3,74.1,63.5,62.9,57.6,53.4,72,57,41,29.58,29.48,6,0,6,0.00
2013-7-3,87.8,72.1,62.1,65.2,57.9,52.9,75,62,45,29.57,29.43,29,1,29,0.00
2013-7-4,85.8,71.7,63.0,64.7,58.2,54.0,75,63,47,29.45,29.37,5,0,5,0.00
2013-7-5,79.2,66.4,58.6,59.9,54.1,50.2,76,65,50,29.48,29.38,5,1,5,0.00
2013-7-6,75.0,63.1,58.1,58.4,52.4,49.7,77,68,55,29.48,29.41,4,0,4,0.00
2013-7-7,75.9,63.5,57.4,58.9,52.5,49.3,77,68,53,29.53,29.45,4,0,4,0.00
2013-7-8,80.4,65.3,56.8,57.5,52.3,48.9,77,65,39,29.62,29.52,13,1,13,0.00
2013-7-9,91.4,68.4,54.1,64.5,53.8,46.3,78,62,36,29.65,29.56,4,1,13,0.00
2013-7-10,78.1,66.6,58.8,61.1,54.6,51.1,77,66,53,29.63,29.53,5,1,5,0.00
2013-7-11,77.5,64.5,58.1,59.7,53.3,49.3,78,68,51,29.60,29.53,58,1,58,0.00
2013-7-12,81.1,64.8,56.5,61.4,52.9,48.5,78,66,48,29.61,29.52,5,1,5,0.00
2013-7-13,82.2,64.9,53.4,61.5,52.7,46.0,78,66,47,29.63,29.53,5,1,5,0.00
2013-7-14,81.5,65.4,55.4,61.6,53.2,48.3,77,66,47,29.65,29.53,4,1,4,0.00
2013-7-15,76.3,63.1,56.8,59.3,52.6,49.7,78,69,54,29.58,29.48,6,1,6,0.00
2013-7-16,76.3,63.4,57.6,59.6,53.4,50.6,80,71,54,29.67,29.53,5,0,5,0.00
2013-7-17,82.0,66.5,56.8,62.1,54.6,49.9,79,67,48,29.72,29.63,5,0,5,0.00
2013-7-18,84.6,65.5,52.9,63.4,53.1,44.6,78,65,46,29.71,29.56,5,1,5,0.00
2013-7-19,79.3,65.0,56.3,61.9,53.9,49.5,79,68,52,29.61,29.47,5,1,5,0.00
2013-7-20,74.8,63.0,57.2,60.0,52.9,49.1,79,70,56,29.61,29.43,6,0,6,0.00
2013-7-21,82.2,66.5,56.3,62.4,55.0,49.3,79,67,49,29.53,29.44,5,1,6,0.00
2013-7-22,73.8,68.7,62.2,61.0,56.9,54.6,78,66,60,29.60,29.53,4,0,4,0.00
2013-7-23,82.4,69.5,62.2,61.9,57.2,53.6,78,66,49,29.64,29.58,6,0,6,0.00
2013-7-24,83.8,68.3,58.3,63.1,55.9,50.6,79,66,48,29.63,29.53,6,1,6,0.00
2013-7-25,80.6,65.9,56.8,61.9,54.5,48.8,79,67,51,29.68,29.58,6,0,6,0.00
2013-7-26,78.4,65.5,58.3,62.1,54.9,50.8,79,69,54,29.74,29.64,5,1,5,0.00
2013-7-27,77.0,64.6,58.1,61.0,54.8,51.6,80,71,56,29.68,29.52,4,1,4,0.00
2013-7-28,68.5,61.9,57.7,57.4,53.6,50.8,80,74,63,29.56,29.49,4,0,4,0.00
2013-7-29,72.0,61.6,57.0,58.7,51.9,48.0,77,71,59,29.68,29.53,6,1,6,0.00
2013-7-30,76.5,62.5,56.3,58.1,51.7,48.8,77,68,51,29.74,29.67,7,1,7,0.00
2013-7-31,76.5,63.2,55.9,59.7,52.3,47.1,78,68,54,29.75,29.64,6,1,6,0.00
2013-8-1,79.5,62.7,50.5,55.0,48.8,42.2,80,62,40,29.72,29.60,5,1,5,0.00
2013-8-2,77.9,61.7,50.9,60.0,50.4,42.7,79,67,51,29.64,29.54,4,1,4,0.00
2013-8-3,71.2,60.7,55.8,57.4,51.4,48.5,78,72,59,29.65,29.57,4,0,4,0.00
2013-8-4,72.3,61.0,55.4,58.4,52.1,48.6,81,73,59,29.66,29.58,4,0,4,0.00
2013-8-5,77.5,61.8,53.2,60.3,51.7,46.9,80,70,51,29.68,29.56,4,0,4,0.00
2013-8-6,72.9,61.3,55.0,58.2,51.9,48.3,79,72,58,29.70,29.62,6,0,6,0.00
2013-8-7,75.0,63.7,58.3,58.6,53.4,49.6,79,70,56,29.74,29.65,6,0,6,0.00
2013-8-8,75.0,62.5,56.8,59.9,53.1,49.3,80,72,57,29.68,29.56,4,1,4,0.00
2013-8-9,74.8,63.2,56.1,59.5,53.2,48.8,77,70,58,29.64,29.55,4,1,5,0.00
2013-8-10,79.7,65.4,57.7,62.4,54.9,50.9,79,70,53,29.67,29.60,5,1,5,0.00
2013-8-11,79.2,65.1,56.7,62.3,54.7,33.8,79,70,53,29.66,29.56,6,1,6,0.00
2013-8-12,79.7,65.6,55.0,61.9,54.5,47.6,79,68,52,29.63,29.56,6,1,6,0.00
2013-8-13,82.0,69.3,52.5,60.9,55.0,45.3,79,61,46,32.37,29.59,4,1,4,0.00
2013-8-14,84.0,66.0,51.8,60.6,51.5,43.4,78,62,33,32.45,29.53,8,1,8,0.00
2013-8-15,88.9,71.3,58.5,66.0,58.5,51.4,82,65,46,29.98,29.90,5,1,8,0.00
2013-8-16,87.8,71.3,60.3,66.5,57.2,49.3,80,63,40,29.99,29.92,6,1,6,0.00
2013-8-17,79.7,66.4,57.2,59.7,53.2,46.7,70,63,49,30.01,29.89,34,0,34,0.02
2013-8-18,83.8,66.9,55.4,63.3,55.1,47.4,81,67,49,29.94,29.80,5,0,35,0.00
2013-8-19,80.8,67.1,57.6,62.2,55.5,49.7,79,67,50,29.95,29.84,5,1,5,0.00
2013-8-20,75.7,64.6,59.5,60.1,54.9,51.6,79,71,57,29.95,29.86,5,1,5,0.00
2013-8-21,76.3,64.7,57.9,59.1,54.0,51.1,79,69,53,29.97,29.86,4,0,4,0.00
2013-8-22,76.5,64.4,54.5,59.4,53.4,46.7,81,68,54,30.00,29.88,4,0,4,0.00
2013-8-23,79.2,65.6,56.5,62.2,54.3,48.6,80,68,54,29.95,29.82,5,1,5,0.00
2013-8-24,81.3,66.3,54.1,62.2,54.5,46.0,79,67,49,29.92,29.84,6,1,6,0.00
2013-8-25,79.3,68.2,61.0,63.0,58.0,54.4,90,71,54,29.97,29.90,6,1,6,0.00
2013-8-26,80.8,68.5,61.9,62.7,56.2,48.7,78,66,50,30.01,29.88,8,1,8,0.00
2013-8-27,82.9,67.1,55.0,61.0,52.8,46.0,74,61,44,29.94,29.81,28,1,28,0.00
2013-8-28,83.5,68.0,55.8,62.4,55.4,47.8,79,65,48,29.96,29.85,22,0,28,0.00
2013-8-29,84.2,70.7,60.1,65.6,59.2,53.4,80,68,52,30.04,29.96,5,0,5,0.00
2013-8-30,89.6,72.5,59.2,65.3,57.1,51.2,81,61,40,30.04,29.91,14,1,14,0.00
2013-8-31,85.6,71.5,59.2,59.9,53.4,47.8,69,54,36,29.99,29.88,24,0,24,0.00
2013-9-1,83.8,71.9,63.1,62.3,56.9,52.8,72,60,46,29.95,29.86,4,0,24,0.00
2013-9-2,82.6,71.8,66.0,64.6,59.6,56.3,74,66,53,29.96,29.87,10,1,10,0.00
2013-9-3,80.2,68.5,59.2,58.4,54.7,51.6,79,63,44,30.00,29.92,8,1,8,0.00
2013-9-4,79.3,67.3,58.6,59.4,54.5,51.3,81,65,45,30.04,29.94,8,1,8,0.00
2013-9-5,78.3,67.2,61.0,58.6,54.3,50.4,77,64,45,30.03,29.95,7,1,7,0.00
2013-9-6,85.8,68.1,52.9,59.1,52.2,44.6,77,59,39,30.02,29.81,14,0,14,0.00
2013-9-7,83.5,68.5,57.4,60.4,53.3,46.1,70,59,44,29.90,29.84,5,0,5,0.00
2013-9-8,78.8,65.9,56.5,63.3,55.2,48.6,81,69,55,29.90,29.78,6,0,6,0.00
2013-9-9,79.3,65.9,55.9,62.9,55.2,48.8,81,69,55,29.84,29.74,4,0,6,0.00
2013-9-10,64.9,62.0,59.0,57.7,55.3,52.8,82,79,74,29.94,29.79,4,0,4,0.00
2013-9-11,72.0,64.4,59.2,60.8,56.5,51.6,82,76,66,30.02,29.93,4,0,4,0.00
2013-9-12,77.7,65.7,58.6,64.1,56.9,51.3,82,74,61,30.00,29.88,3,0,3,0.00
2013-9-13,78.1,65.5,57.0,62.7,56.0,50.9,83,72,55,29.94,29.77,4,0,4,0.00
2013-9-14,77.4,64.1,55.6,60.1,53.6,48.8,82,69,47,29.86,29.74,8,1,8,0.00
2013-9-15,79.0,64.8,53.4,60.9,54.1,46.6,82,69,50,29.88,29.80,6,1,6,0.00
2013-9-16,79.9,65.5,55.2,63.0,54.6,47.8,82,69,49,29.91,29.80,5,1,6,0.00
2013-9-17,70.9,62.6,56.8,55.1,51.9,48.6,80,69,51,29.93,29.88,7,1,7,0.00
2013-9-18,78.4,62.8,50.4,54.4,48.3,43.1,81,61,40,29.92,29.82,10,0,10,0.00
2013-9-19,82.2,64.4,48.7,53.3,45.8,38.4,71,53,34,29.90,29.75,5,0,6,0.00
2013-9-20,73.2,63.0,52.9,59.2,50.6,39.9,75,64,52,29.89,29.81,5,1,5,0.00
2013-9-21,64.0,61.6,56.3,59.1,56.1,50.9,85,82,75,29.94,29.85,7,0,7,0.37
2013-9-22,69.6,59.8,53.2,59.2,52.5,47.9,89,77,60,30.02,29.93,6,1,6,0.00
2013-9-23,76.3,63.2,52.0,59.2,53.3,46.0,85,71,53,30.03,29.92,5,0,6,0.00
2013-9-24,71.2,62.6,55.6,56.5,51.8,48.5,84,69,51,30.01,29.94,10,1,10,0.00
2013-9-25,65.1,58.4,52.5,48.6,46.5,44.2,78,65,51,29.97,29.85,9,2,10,0.00
2013-9-26,69.6,56.7,45.7,47.3,42.0,37.9,81,60,40,30.01,29.85,6,1,9,0.00
2013-9-27,72.0,56.9,43.9,47.2,39.7,35.1,76,55,31,30.11,30.01,5,0,5,0.00
2013-9-28,76.3,59.8,45.7,48.5,41.9,34.5,69,53,36,30.10,29.99,6,0,6,0.00
2013-9-29,76.3,62.9,51.6,59.4,51.3,43.2,79,67,50,30.12,30.02,4,0,6,0.00
2013-9-30,74.5,64.0,55.2,60.6,54.5,48.1,82,72,61,30.10,29.96,7,1,7,0.00
2013-10-1,70.3,61.4,53.6,54.2,49.2,44.9,77,65,54,30.04,29.93,4,0,4,0.00
2013-10-2,72.5,58.5,48.0,55.4,46.0,39.8,79,64,48,30.03,29.93,6,0,6,0.00
2013-10-3,68.5,56.0,45.3,43.3,38.7,35.9,76,54,31,30.07,29.95,10,1,10,0.00
2013-10-4,73.9,59.9,47.7,40.6,37.0,33.6,60,44,29,30.11,29.95,6,1,10,0.00
2013-10-5,76.5,59.3,45.3,44.7,36.5,31.4,63,44,25,30.19,30.09,5,0,5,0.00
2013-10-6,76.8,59.4,45.7,46.9,36.6,30.9,61,44,27,30.14,30.01,5,0,5,0.00
2013-10-7,75.9,60.0,47.5,47.5,38.0,31.4,59,45,32,30.03,29.89,5,0,5,0.00
2013-10-8,66.7,55.2,45.1,52.3,42.5,32.5,72,63,54,29.94,29.77,5,0,5,0.00
2013-10-9,63.9,55.3,50.0,49.7,44.9,38.8,78,68,56,29.81,29.67,4,0,4,0.00
2013-10-10,59.2,51.4,44.6,49.8,43.0,35.8,79,73,65,30.04,29.80,5,0,5,0.00
2013-10-11,65.7,54.9,49.3,52.8,46.7,41.9,81,74,61,30.10,29.98,4,0,4,0.00
2013-10-12,66.4,53.5,43.2,53.4,44.1,35.8,82,71,61,30.04,29.92,4,0,4,0.00
2013-10-13,65.8,55.0,47.1,54.2,46.2,39.8,83,73,64,30.08,29.96,2,0,2,0.00
2013-10-14,70.5,55.8,43.2,51.5,42.2,35.6,79,62,43,30.12,29.98,5,0,5,0.00
2013-10-15,72.7,56.8,43.3,45.8,38.9,32.9,72,53,34,30.04,29.94,4,0,4,0.00
2013-10-16,73.9,56.9,44.4,48.6,37.8,32.8,67,50,31,30.09,30.01,6,0,6,0.00
2013-10-17,73.9,56.9,43.7,48.2,37.3,17.7,65,49,33,30.10,29.96,22,0,22,0.00
2013-10-18,73.2,56.6,43.9,46.4,37.9,30.0,64,50,35,30.06,29.97,7,0,22,0.00
2013-10-19,73.2,56.8,44.8,50.7,41.6,34.2,72,58,38,30.08,29.99,4,0,4,0.00
2013-10-20,68.7,55.0,44.8,54.7,44.2,36.3,77,67,58,30.04,29.92,3,0,3,0.00
2013-10-21,67.8,53.3,42.6,54.2,43.3,34.9,78,69,59,30.02,29.92,4,0,4,0.00
2013-10-22,66.7,52.5,42.4,53.9,43.7,35.1,82,72,62,30.03,29.94,2,0,2,0.00
2013-10-23,63.9,52.1,43.9,54.9,45.0,36.8,86,77,69,30.01,29.92,3,0,3,0.00
2013-10-24,57.9,52.1,48.7,50.8,46.0,43.2,82,80,76,30.12,29.99,4,0,4,0.00
2013-10-25,64.6,52.5,44.1,55.8,45.5,37.6,86,77,70,30.17,30.07,2,0,2,0.00
2013-10-26,67.8,53.8,43.5,56.9,45.7,37.3,84,74,65,30.15,30.02,1,0,2,0.00
2013-10-27,57.2,51.0,43.5,50.6,44.3,36.8,86,78,71,30.06,29.77,8,0,8,0.00
2013-10-28,57.2,54.0,50.9,49.0,46.6,44.8,85,76,67,29.84,29.73,10,1,11,0.10
2013-10-29,59.5,54.2,47.5,51.6,47.2,39.9,85,77,68,30.07,29.84,4,0,4,0.00
2013-10-30,61.0,49.9,40.5,49.9,42.2,34.1,84,75,67,30.15,30.06,4,0,4,0.00
2013-10-31,63.3,51.1,41.5,51.7,43.0,34.9,85,74,65,30.17,30.04,4,0,4,0.00
2013-11-1,65.3,51.6,41.7,51.7,41.8,35.4,84,70,56,30.14,30.01,2,0,2,0.00
2013-11-2,64.9,52.2,40.8,52.0,42.2,32.8,78,69,60,30.04,29.92,4,0,4,0.00
2013-11-3,61.2,51.4,42.1,43.1,37.1,32.8,82,60,35,30.03,29.92,7,0,7,0.00
2013-11-4,61.3,48.8,37.9,39.7,33.1,29.2,75,56,36,30.05,29.93,5,0,5,0.00
2013-11-5,66.7,54.6,46.2,38.3,34.3,30.3,60,47,33,30.22,30.04,6,1,6,0.00
2013-11-6,64.8,52.5,42.3,46.9,36.9,30.7,70,56,45,30.23,30.13,4,0,4,0.00
2013-11-7,62.1,52.6,44.8,46.8,39.6,33.3,69,61,53,30.16,30.05,2,0,2,0.00
2013-11-8,66.2,53.4,43.5,51.9,42.6,34.9,79,67,57,30.08,29.94,2,0,2,0.00
2013-11-9,62.4,51.6,44.1,48.5,42.6,36.6,82,72,55,30.07,29.98,4,0,4,0.00
2013-11-10,59.5,52.0,46.4,50.9,45.0,39.4,83,77,70,30.13,30.04,5,0,5,0.00
2013-11-11,62.8,54.4,46.4,51.9,46.6,41.1,83,75,64,30.16,30.07,3,0,3,0.00
2013-11-12,66.0,57.0,50.5,52.4,47.0,41.8,78,70,59,30.24,30.13,2,0,2,0.00
2013-11-13,69.3,55.3,45.3,54.0,44.8,38.5,82,69,51,30.24,30.09,4,0,4,0.00
2013-11-14,62.1,53.2,44.4,53.5,44.9,37.3,80,73,68,30.11,29.90,5,0,5,0.00
2013-11-15,59.7,52.5,44.8,49.1,43.2,35.9,80,71,64,29.91,29.74,4,0,5,0.00
2013-11-16,57.4,48.6,39.6,47.0,40.8,32.3,81,74,67,29.96,29.81,5,0,5,0.00
2013-11-17,57.4,49.7,44.4,49.7,43.0,37.8,84,78,75,30.10,29.95,2,0,5,0.00
2013-11-18,57.2,47.9,39.7,48.3,41.0,33.1,84,77,71,30.16,30.07,4,0,4,0.00
2013-11-19,58.6,52.5,46.2,51.8,47.2,39.4,87,82,77,30.12,29.97,2,0,2,0.30
2013-11-20,59.2,55.6,50.9,55.9,52.1,46.4,90,88,85,29.98,29.85,2,0,2,0.42
2013-11-21,54.9,51.3,46.9,48.5,44.0,34.7,89,77,53,29.95,29.89,7,1,7,0.02
2013-11-22,58.8,49.2,41.7,38.6,34.2,4.1,72,57,39,30.01,29.92,6,1,7,0.00
2013-11-23,55.6,45.9,38.1,46.7,38.4,30.9,80,75,69,30.12,29.98,4,0,4,0.00
2013-11-24,55.0,45.5,37.9,47.9,39.0,31.7,85,78,75,30.24,30.11,2,0,2,0.00
2013-11-25,55.4,45.8,37.6,48.3,39.5,32.0,85,79,75,30.30,30.21,2,0,2,0.00
2013-11-26,57.7,48.0,39.7,50.9,41.9,34.1,83,79,75,30.24,30.02,0,0,2,0.00
2013-11-27,57.9,48.7,41.0,49.7,42.2,35.6,85,78,72,30.03,29.85,2,0,2,0.00
2013-11-28,58.6,48.6,43.0,50.6,42.0,37.4,85,78,72,30.09,29.87,2,0,2,0.00
2013-11-29,57.4,47.0,39.4,50.7,40.4,34.0,86,78,72,30.22,30.08,0,0,2,0.00
2013-11-30,56.7,46.4,37.9,48.0,39.2,32.0,85,76,68,30.26,30.16,4,0,4,0.00
2013-12-1,64.9,48.6,39.2,50.4,40.0,33.5,86,73,50,30.32,30.18,4,0,4,0.00
2013-12-2,57.7,48.9,39.4,50.2,42.4,33.3,84,78,73,30.23,29.99,6,0,6,0.00
2013-12-3,52.9,48.4,39.0,45.5,39.7,30.8,85,72,58,29.99,29.85,8,1,8,0.00
2013-12-4,47.1,38.2,31.5,34.3,29.0,24.1,78,69,58,30.08,29.93,4,0,4,0.00
2013-12-5,44.6,34.9,26.8,33.0,25.9,19.3,77,70,62,30.18,30.07,3,0,3,0.00
2013-12-6,48.7,39.3,29.1,44.7,31.9,21.5,87,75,64,30.20,29.95,7,0,7,0.59
2013-12-7,48.7,42.2,34.0,45.0,35.5,26.9,87,77,65,30.23,29.92,9,1,9,0.39
2013-12-8,43.7,35.6,31.3,34.9,27.8,23.3,82,73,62,30.29,30.17,5,0,9,0.00
2013-12-9,44.1,33.5,26.8,32.1,25.2,19.9,80,71,61,30.38,30.28,4,0,4,0.00
2013-12-10,45.7,35.0,27.3,36.5,27.3,20.4,80,73,66,30.37,30.16,0,0,2,0.12
2013-12-11,49.8,38.2,30.9,40.3,30.1,24.6,81,73,64,30.20,30.13,4,0,4,0.00
2013-12-12,49.6,38.1,30.4,40.4,30.2,23.7,81,73,65,30.25,30.15,4,0,4,0.00
2013-12-13,49.3,38.6,31.3,42.4,32.1,24.9,86,77,74,30.31,30.21,2,0,3,0.00
2013-12-14,52.5,40.4,32.7,45.0,34.1,26.8,86,78,73,30.35,30.25,4,0,4,0.00
2013-12-15,54.5,42.4,33.4,47.3,36.0,27.9,85,78,74,30.33,30.18,3,0,3,0.00
2013-12-16,57.4,44.9,36.3,48.3,37.4,30.7,84,75,65,30.20,30.08,3,0,3,0.00
2013-12-17,58.6,47.3,38.1,50.7,40.2,31.9,81,76,70,30.15,30.01,2,0,2,0.00
2013-12-18,57.4,49.4,43.9,49.9,42.9,37.5,82,78,74,30.02,29.80,4,0,4,0.00
2013-12-19,55.0,47.7,38.5,42.6,37.4,29.9,82,68,50,29.93,29.74,10,1,10,0.00
2013-12-20,54.3,41.4,32.7,33.2,27.5,24.3,75,59,35,30.01,29.92,4,0,5,0.00
2013-12-21,54.3,42.8,34.0,45.1,34.0,24.5,80,71,59,30.08,29.95,2,0,2,0.00
2013-12-22,54.9,44.0,36.3,48.1,38.0,30.4,88,79,75,30.29,30.08,4,0,4,0.00
2013-12-23,55.0,44.0,36.1,48.1,37.9,30.7,87,79,74,30.36,30.27,2,0,2,0.00
2013-12-24,59.0,45.3,36.9,50.4,38.2,31.6,86,76,67,30.31,30.17,3,0,3,0.00
2013-12-25,56.8,43.8,34.9,47.8,36.0,28.7,83,74,66,30.24,30.15,4,0,4,0.00
2013-12-26,57.4,44.0,34.9,48.1,35.7,28.7,84,73,64,30.23,30.12,3,0,3,0.00
2013-12-27,58.5,45.2,34.9,49.3,37.6,27.8,80,74,71,30.20,30.09,0,0,2,0.00
2013-12-28,61.9,44.9,34.5,41.0,32.4,27.9,81,63,38,30.12,30.00,6,0,6,0.00
2013-12-29,56.5,43.3,34.5,41.9,31.8,25.4,74,64,55,30.18,30.06,4,0,5,0.00
2013-12-30,54.9,42.3,33.6,42.3,31.9,25.9,77,67,58,30.25,30.17,4,0,4,0.00
2013-12-31,54.9,42.3,33.3,41.5,32.6,24.9,75,69,60,30.26,30.11,2,0,2,0.00
2014-1-1,56.8,44.0,34.3,45.8,35.1,27.6,81,71,60,30.21,30.08,2,0,2,0.00
2014-1-2,59.2,45.9,36.7,49.0,37.0,29.3,80,71,64,30.15,30.03,4,0,4,0.00